createdAt,value
2017-12-26T00:00:37.650Z,3.42
2017-12-26T00:01:40.102Z,3.42
2017-12-26T00:02:42.564Z,3.42
2017-12-26T00:03:45.041Z,3.42
2017-12-26T00:04:47.504Z,3.39
2017-12-26T00:05:49.970Z,3.37
2017-12-26T00:06:52.429Z,3.40
2017-12-26T00:07:54.892Z,3.36
2017-12-26T00:08:57.369Z,3.36
2017-12-26T00:09:59.823Z,3.33
2017-12-26T00:11:02.289Z,3.35
2017-12-26T00:12:04.761Z,3.33
2017-12-26T00:13:07.221Z,3.34
2017-12-26T00:14:09.685Z,3.32
2017-12-26T00:15:12.137Z,3.32
2017-12-26T00:16:14.606Z,3.32
2017-12-26T00:17:17.069Z,3.31
2017-12-26T00:18:19.534Z,3.31
2017-12-26T00:19:21.979Z,3.29
2017-12-26T00:20:24.440Z,3.28
2017-12-26T00:21:26.992Z,3.25
2017-12-26T00:22:29.435Z,3.25
2017-12-26T00:23:31.905Z,3.25
2017-12-26T00:24:34.368Z,3.24
2017-12-26T00:25:36.810Z,3.20
2017-12-26T00:26:39.258Z,3.21
2017-12-26T00:27:41.720Z,3.18
2017-12-26T00:28:44.185Z,3.19
2017-12-26T00:29:46.630Z,3.24
2017-12-26T00:30:49.133Z,3.25
2017-12-26T00:31:51.554Z,3.27
2017-12-26T00:32:54.011Z,3.29
2017-12-26T00:33:56.488Z,3.30
2017-12-26T00:34:58.936Z,3.27
2017-12-26T00:36:01.397Z,3.27
2017-12-26T00:37:03.961Z,3.29
2017-12-26T00:38:06.425Z,3.32
2017-12-26T00:39:08.878Z,3.31
2017-12-26T00:40:11.332Z,3.34
2017-12-26T00:41:13.778Z,3.33
2017-12-26T00:42:16.243Z,3.34
2017-12-26T00:43:18.712Z,3.37
2017-12-26T00:44:21.156Z,3.38
2017-12-26T00:45:23.603Z,3.35
2017-12-26T00:46:26.065Z,3.39
2017-12-26T00:47:28.524Z,3.42
2017-12-26T00:48:31.004Z,3.42
2017-12-26T00:49:33.470Z,3.50
2017-12-26T00:50:35.930Z,3.52
2017-12-26T00:51:38.397Z,3.52
2017-12-26T00:52:40.845Z,3.52
2017-12-26T00:53:43.290Z,3.52
2017-12-26T00:54:45.768Z,3.53
2017-12-26T00:55:48.218Z,3.56
2017-12-26T00:56:50.710Z,3.61
2017-12-26T00:57:53.188Z,3.62
2017-12-26T00:58:55.653Z,3.67
2017-12-26T00:59:58.134Z,3.64
2017-12-26T01:01:00.583Z,3.63
2017-12-26T01:02:03.031Z,3.67
2017-12-26T01:03:05.474Z,3.71
2017-12-26T01:04:07.956Z,3.68
2017-12-26T01:05:10.427Z,3.67
2017-12-26T01:06:12.892Z,3.67
2017-12-26T01:07:15.342Z,3.73
2017-12-26T01:08:17.790Z,3.81
2017-12-26T01:09:20.343Z,3.80
2017-12-26T01:10:22.814Z,3.76
2017-12-26T01:11:25.258Z,3.83
2017-12-26T01:12:27.702Z,3.81
2017-12-26T01:13:30.155Z,3.82
2017-12-26T01:14:32.617Z,3.86
2017-12-26T01:15:35.104Z,3.86
2017-12-26T01:16:37.555Z,3.87
2017-12-26T01:17:40.021Z,3.88
2017-12-26T01:18:42.489Z,3.87
2017-12-26T01:19:44.948Z,3.90
2017-12-26T01:20:47.424Z,3.91
2017-12-26T01:21:49.885Z,3.94
2017-12-26T01:22:52.349Z,3.95
2017-12-26T01:23:54.812Z,3.96
2017-12-26T01:24:57.274Z,3.98
2017-12-26T01:25:59.743Z,4.07
2017-12-26T01:27:02.203Z,4.13
2017-12-26T01:28:04.664Z,4.14
2017-12-26T01:29:07.123Z,4.15
2017-12-26T01:30:09.601Z,4.14
2017-12-26T01:31:12.066Z,4.13
2017-12-26T01:32:14.533Z,4.13
2017-12-26T01:33:16.992Z,4.14
2017-12-26T01:34:19.438Z,4.20
2017-12-26T01:35:21.886Z,4.32
2017-12-26T01:36:24.368Z,4.34
2017-12-26T01:37:26.824Z,4.32
2017-12-26T01:38:29.292Z,4.38
2017-12-26T01:39:31.753Z,4.35
2017-12-26T01:40:34.202Z,4.36
2017-12-26T01:41:36.662Z,4.39
2017-12-26T01:42:39.113Z,4.40
2017-12-26T01:43:41.581Z,4.41
2017-12-26T01:44:44.034Z,4.44
2017-12-26T01:45:46.496Z,4.49
2017-12-26T01:46:49.017Z,4.56
2017-12-26T01:47:51.476Z,4.54
2017-12-26T01:48:53.940Z,4.53
2017-12-26T01:49:56.393Z,4.52
2017-12-26T01:50:58.847Z,4.52
2017-12-26T01:52:01.332Z,4.55
2017-12-26T01:53:03.780Z,4.56
2017-12-26T01:54:06.247Z,4.63
2017-12-26T01:55:08.690Z,4.71
2017-12-26T01:56:11.138Z,4.65
2017-12-26T01:57:13.621Z,4.66
2017-12-26T01:58:16.077Z,4.68
2017-12-26T01:59:18.522Z,4.80
2017-12-26T02:00:20.984Z,4.79
2017-12-26T02:01:23.449Z,4.77
2017-12-26T02:02:25.967Z,4.84
2017-12-26T02:03:29.236Z,4.88
2017-12-26T02:04:31.704Z,4.85
2017-12-26T02:05:34.173Z,4.83
2017-12-26T02:06:36.619Z,4.89
2017-12-26T02:07:39.091Z,4.87
2017-12-26T02:08:41.552Z,4.85
2017-12-26T02:09:44.007Z,4.82
2017-12-26T02:10:46.466Z,4.81
2017-12-26T02:11:48.930Z,4.86
2017-12-26T02:12:51.398Z,4.87
2017-12-26T02:13:53.841Z,4.83
2017-12-26T02:14:56.300Z,4.84
2017-12-26T02:15:58.742Z,4.86
2017-12-26T02:17:01.194Z,4.91
2017-12-26T02:18:03.669Z,4.90
2017-12-26T02:19:06.132Z,4.99
2017-12-26T02:20:08.596Z,4.99
2017-12-26T02:21:11.048Z,5.01
2017-12-26T02:22:13.490Z,4.99
2017-12-26T02:23:15.972Z,5.06
2017-12-26T02:24:18.422Z,5.06
2017-12-26T02:25:20.867Z,5.06
2017-12-26T02:26:23.327Z,5.09
2017-12-26T02:27:25.782Z,5.10
2017-12-26T02:28:28.250Z,5.10
2017-12-26T02:29:30.717Z,5.06
2017-12-26T02:30:33.205Z,5.04
2017-12-26T02:31:35.673Z,5.03
2017-12-26T02:32:38.130Z,5.03
2017-12-26T02:33:40.617Z,5.04
2017-12-26T02:34:43.081Z,4.99
2017-12-26T02:35:45.545Z,4.99
2017-12-26T02:36:48.002Z,5.01
2017-12-26T02:37:50.463Z,5.00
2017-12-26T02:38:52.943Z,4.98
2017-12-26T02:39:55.404Z,4.88
2017-12-26T02:40:57.852Z,4.95
2017-12-26T02:42:00.322Z,5.00
2017-12-26T02:43:02.774Z,5.01
2017-12-26T02:44:05.264Z,5.01
2017-12-26T02:45:07.717Z,5.04
2017-12-26T02:46:10.192Z,4.97
2017-12-26T02:47:12.639Z,4.98
2017-12-26T02:48:15.109Z,4.95
2017-12-26T02:49:17.574Z,4.96
2017-12-26T02:50:20.014Z,4.98
2017-12-26T02:51:22.488Z,4.91
2017-12-26T02:52:24.968Z,4.98
2017-12-26T02:53:27.432Z,5.04
2017-12-26T02:54:29.952Z,5.06
2017-12-26T02:55:32.406Z,5.10
2017-12-26T02:56:34.869Z,5.05
2017-12-26T02:57:37.336Z,5.02
2017-12-26T02:58:39.823Z,5.06
2017-12-26T02:59:42.293Z,5.06
2017-12-26T03:00:44.747Z,5.12
2017-12-26T03:01:47.190Z,5.15
2017-12-26T03:02:49.657Z,5.19
2017-12-26T03:03:52.122Z,5.18
2017-12-26T03:04:54.625Z,5.20
2017-12-26T03:05:57.082Z,5.21
2017-12-26T03:06:59.556Z,5.26
2017-12-26T03:08:02.025Z,5.30
2017-12-26T03:09:04.505Z,5.34
2017-12-26T03:10:06.992Z,5.34
2017-12-26T03:11:09.454Z,5.34
2017-12-26T03:12:11.920Z,5.30
2017-12-26T03:13:14.367Z,5.32
2017-12-26T03:14:16.815Z,5.34
2017-12-26T03:15:19.310Z,5.32
2017-12-26T03:16:21.762Z,5.30
2017-12-26T03:17:24.216Z,5.34
2017-12-26T03:18:26.682Z,5.31
2017-12-26T03:19:29.142Z,5.30
2017-12-26T03:20:31.614Z,5.29
2017-12-26T03:21:34.067Z,5.26
2017-12-26T03:22:36.517Z,5.34
2017-12-26T03:23:38.967Z,5.32
2017-12-26T03:24:41.428Z,5.29
2017-12-26T03:25:43.902Z,5.28
2017-12-26T03:26:46.363Z,5.32
2017-12-26T03:27:48.824Z,5.30
2017-12-26T03:28:51.297Z,5.28
2017-12-26T03:29:53.756Z,5.26
2017-12-26T03:30:56.245Z,5.26
2017-12-26T03:31:58.698Z,5.27
2017-12-26T03:33:01.168Z,5.28
2017-12-26T03:34:03.618Z,5.30
2017-12-26T03:35:06.067Z,5.31
2017-12-26T03:36:08.542Z,5.26
2017-12-26T03:37:11.001Z,5.28
2017-12-26T03:38:13.454Z,5.32
2017-12-26T03:39:15.906Z,5.34
2017-12-26T03:40:18.356Z,5.32
2017-12-26T03:41:20.844Z,5.29
2017-12-26T03:42:23.308Z,5.32
2017-12-26T03:43:25.750Z,5.35
2017-12-26T03:44:28.197Z,5.31
2017-12-26T03:45:30.657Z,5.39
2017-12-26T03:46:33.126Z,5.38
2017-12-26T03:47:35.592Z,5.41
2017-12-26T03:48:38.044Z,5.39
2017-12-26T03:49:40.504Z,5.34
2017-12-26T03:50:42.968Z,5.34
2017-12-26T03:51:45.448Z,5.33
2017-12-26T03:52:47.921Z,5.34
2017-12-26T03:53:50.366Z,5.34
2017-12-26T03:54:52.820Z,5.36
2017-12-26T03:55:55.292Z,5.33
2017-12-26T03:56:57.738Z,5.33
2017-12-26T03:58:00.195Z,5.35
2017-12-26T03:59:02.638Z,5.33
2017-12-26T04:00:05.112Z,5.37
2017-12-26T04:01:07.562Z,5.33
2017-12-26T04:02:10.044Z,5.36
2017-12-26T04:03:12.499Z,5.37
2017-12-26T04:04:14.964Z,5.33
2017-12-26T04:05:17.430Z,5.31
2017-12-26T04:06:19.878Z,5.31
2017-12-26T04:07:22.326Z,5.32
2017-12-26T04:08:24.783Z,5.34
2017-12-26T04:09:27.248Z,5.41
2017-12-26T04:10:29.704Z,5.33
2017-12-26T04:11:32.158Z,5.31
2017-12-26T04:12:34.615Z,5.35
2017-12-26T04:13:37.063Z,5.36
2017-12-26T04:14:39.514Z,5.37
2017-12-26T04:15:42.012Z,5.34
2017-12-26T04:16:44.460Z,5.37
2017-12-26T04:17:46.925Z,5.33
2017-12-26T04:18:49.393Z,5.35
2017-12-26T04:19:51.868Z,5.33
2017-12-26T04:20:54.317Z,5.32
2017-12-26T04:21:56.763Z,5.30
2017-12-26T04:22:59.297Z,5.36
2017-12-26T04:24:01.780Z,5.35
2017-12-26T04:25:04.234Z,5.36
2017-12-26T04:26:06.687Z,5.38
2017-12-26T04:27:09.153Z,5.42
2017-12-26T04:28:11.607Z,5.47
2017-12-26T04:29:14.073Z,5.48
2017-12-26T04:30:16.525Z,5.52
2017-12-26T04:31:18.975Z,5.56
2017-12-26T04:32:21.422Z,5.54
2017-12-26T04:33:23.869Z,5.51
2017-12-26T04:34:26.352Z,5.56
2017-12-26T04:35:28.806Z,5.61
2017-12-26T04:36:31.246Z,5.68
2017-12-26T04:37:33.721Z,5.69
2017-12-26T04:38:36.185Z,5.77
2017-12-26T04:39:38.635Z,5.79
2017-12-26T04:40:41.097Z,5.81
2017-12-26T04:41:43.660Z,5.82
2017-12-26T04:42:46.111Z,5.87
2017-12-26T04:43:48.556Z,5.95
2017-12-26T04:44:51.025Z,5.95
2017-12-26T04:45:53.475Z,5.96
2017-12-26T04:46:55.941Z,5.96
2017-12-26T04:47:58.395Z,5.93
2017-12-26T04:49:00.838Z,5.97
2017-12-26T04:50:03.377Z,6.06
2017-12-26T04:51:05.822Z,6.03
2017-12-26T04:52:08.266Z,6.09
2017-12-26T04:53:10.716Z,6.08
2017-12-26T04:54:13.168Z,6.16
2017-12-26T04:55:15.618Z,6.18
2017-12-26T04:56:18.066Z,6.23
2017-12-26T04:57:20.524Z,6.21
2017-12-26T04:58:22.969Z,6.26
2017-12-26T04:59:25.421Z,6.33
2017-12-26T05:00:27.886Z,6.41
2017-12-26T05:01:30.353Z,6.43
2017-12-26T05:02:32.815Z,6.41
2017-12-26T05:03:35.306Z,6.47
2017-12-26T05:04:37.768Z,6.54
2017-12-26T05:05:40.228Z,6.59
2017-12-26T05:06:42.678Z,6.59
2017-12-26T05:07:45.144Z,6.64
2017-12-26T05:08:47.630Z,6.68
2017-12-26T05:09:50.089Z,6.70
2017-12-26T05:10:52.548Z,6.74
2017-12-26T05:11:55.008Z,6.76
2017-12-26T05:12:57.472Z,6.78
2017-12-26T05:13:59.946Z,6.80
2017-12-26T05:15:02.395Z,6.83
2017-12-26T05:16:04.852Z,6.82
2017-12-26T05:17:07.301Z,6.89
2017-12-26T05:18:09.761Z,6.90
2017-12-26T05:19:12.233Z,6.93
2017-12-26T05:20:14.692Z,6.97
2017-12-26T05:21:17.153Z,6.98
2017-12-26T05:22:19.610Z,6.99
2017-12-26T05:23:22.073Z,7.01
2017-12-26T05:24:24.549Z,7.06
2017-12-26T05:25:27.020Z,7.11
2017-12-26T05:26:29.492Z,7.13
2017-12-26T05:27:31.961Z,7.16
2017-12-26T05:28:34.422Z,7.18
2017-12-26T05:29:36.894Z,7.15
2017-12-26T05:30:39.357Z,7.17
2017-12-26T05:31:41.822Z,7.20
2017-12-26T05:32:44.287Z,7.20
2017-12-26T05:33:46.730Z,7.25
2017-12-26T05:34:49.208Z,7.23
2017-12-26T05:35:51.651Z,7.26
2017-12-26T05:36:54.108Z,7.27
2017-12-26T05:37:56.568Z,7.29
2017-12-26T05:38:59.032Z,7.28
2017-12-26T05:40:01.516Z,7.31
2017-12-26T05:41:03.985Z,7.34
2017-12-26T05:42:06.434Z,7.33
2017-12-26T05:43:08.901Z,7.40
2017-12-26T05:44:11.354Z,7.39
2017-12-26T05:45:13.840Z,7.42
2017-12-26T05:46:16.306Z,7.41
2017-12-26T05:47:18.774Z,7.42
2017-12-26T05:48:21.240Z,7.40
2017-12-26T05:49:23.700Z,7.42
2017-12-26T05:50:26.188Z,7.47
2017-12-26T05:51:28.652Z,7.50
2017-12-26T05:52:31.116Z,7.54
2017-12-26T05:53:33.571Z,7.53
2017-12-26T05:54:36.019Z,7.53
2017-12-26T05:55:38.486Z,7.52
2017-12-26T05:56:40.940Z,7.51
2017-12-26T05:57:43.400Z,7.52
2017-12-26T05:58:45.886Z,7.56
2017-12-26T05:59:48.348Z,7.57
2017-12-26T06:00:50.802Z,7.57
2017-12-26T06:01:53.242Z,7.58
2017-12-26T06:02:55.683Z,7.59
2017-12-26T06:03:58.130Z,7.56
2017-12-26T06:05:00.574Z,7.60
2017-12-26T06:06:03.019Z,7.61
2017-12-26T06:07:05.484Z,7.60
2017-12-26T06:08:07.945Z,7.60
2017-12-26T06:09:10.412Z,7.62
2017-12-26T06:10:12.854Z,7.66
2017-12-26T06:11:15.302Z,7.66
2017-12-26T06:12:17.742Z,7.65
2017-12-26T06:13:20.193Z,7.68
2017-12-26T06:14:22.660Z,7.69
2017-12-26T06:15:25.179Z,7.70
2017-12-26T06:16:27.656Z,7.70
2017-12-26T06:17:30.125Z,7.74
2017-12-26T06:18:32.575Z,7.70
2017-12-26T06:19:35.048Z,7.70
2017-12-26T06:20:37.508Z,7.68
2017-12-26T06:21:40.098Z,7.68
2017-12-26T06:22:42.616Z,7.68
2017-12-26T06:23:45.213Z,7.68
2017-12-26T06:24:47.764Z,7.68
2017-12-26T06:25:50.278Z,7.68
2017-12-26T06:26:52.780Z,7.71
2017-12-26T06:27:55.290Z,7.68
2017-12-26T06:28:57.870Z,7.67
2017-12-26T06:30:00.424Z,7.67
2017-12-26T06:31:02.946Z,7.65
2017-12-26T06:32:05.484Z,7.64
2017-12-26T06:33:08.012Z,7.65
2017-12-26T06:34:10.609Z,7.65
2017-12-26T06:35:13.397Z,7.65
2017-12-26T06:36:15.904Z,7.64
2017-12-26T06:37:18.471Z,7.63
2017-12-26T06:38:21.128Z,7.62
2017-12-26T06:39:23.753Z,7.65
2017-12-26T06:40:26.257Z,7.71
2017-12-26T06:41:28.720Z,7.71
2017-12-26T06:42:31.260Z,7.68
2017-12-26T06:43:33.810Z,7.70
2017-12-26T06:44:36.352Z,7.70
2017-12-26T06:45:39.031Z,7.71
2017-12-26T06:46:42.474Z,7.71
2017-12-26T06:47:45.076Z,7.71
2017-12-26T06:48:48.136Z,7.72
2017-12-26T06:49:50.718Z,7.72
2017-12-26T06:50:53.329Z,7.72
2017-12-26T06:51:55.840Z,7.72
2017-12-26T06:52:58.553Z,7.72
2017-12-26T06:54:01.191Z,7.70
2017-12-26T06:55:03.870Z,7.72
2017-12-26T06:56:06.406Z,7.71
2017-12-26T06:57:09.055Z,7.66
2017-12-26T06:58:11.580Z,7.67
2017-12-26T06:59:14.116Z,7.66
2017-12-26T07:00:16.636Z,7.60
2017-12-26T07:01:19.113Z,7.59
2017-12-26T07:02:21.725Z,7.56
2017-12-26T07:03:24.545Z,7.53
2017-12-26T07:04:27.192Z,7.50
2017-12-26T07:05:29.784Z,7.45
2017-12-26T07:06:32.420Z,7.50
2017-12-26T07:07:34.982Z,7.52
2017-12-26T07:08:37.585Z,7.53
2017-12-26T07:09:40.196Z,7.50
2017-12-26T07:10:42.774Z,7.46
2017-12-26T07:11:45.485Z,7.42
2017-12-26T07:12:48.053Z,7.42
2017-12-26T07:13:50.643Z,7.45
2017-12-26T07:14:53.162Z,7.44
2017-12-26T07:15:55.742Z,7.36
2017-12-26T07:16:58.408Z,7.35
2017-12-26T07:18:00.961Z,7.34
2017-12-26T07:19:03.464Z,7.36
2017-12-26T07:21:58.893Z,7.34
2017-12-26T07:23:01.371Z,7.29
2017-12-26T07:24:03.890Z,7.29
2017-12-26T07:25:06.398Z,7.34
2017-12-26T07:26:08.862Z,7.31
2017-12-26T07:27:11.516Z,7.31
2017-12-26T07:28:14.217Z,7.31
2017-12-26T07:29:17.118Z,7.25
2017-12-26T07:30:19.754Z,7.29
2017-12-26T07:31:22.482Z,7.29
2017-12-26T07:32:24.992Z,7.27
2017-12-26T07:33:27.516Z,7.23
2017-12-26T07:34:30.010Z,7.23
2017-12-26T07:35:32.551Z,7.21
2017-12-26T07:36:35.063Z,7.16
2017-12-26T07:37:37.552Z,7.23
2017-12-26T07:38:40.091Z,7.14
2017-12-26T07:39:42.595Z,7.21
2017-12-26T07:40:45.140Z,7.21
2017-12-26T07:41:48.891Z,7.17
2017-12-26T07:42:51.377Z,7.18
2017-12-26T07:43:53.859Z,7.16
2017-12-26T07:44:56.438Z,7.17
2017-12-26T07:45:59.195Z,7.15
2017-12-26T07:47:01.697Z,7.13
2017-12-26T07:48:04.178Z,7.13
2017-12-26T07:49:06.645Z,7.08
2017-12-26T07:50:09.225Z,7.04
2017-12-26T07:51:11.746Z,7.01
2017-12-26T07:52:14.243Z,6.95
2017-12-26T07:53:16.705Z,6.95
2017-12-26T07:54:19.163Z,6.90
2017-12-26T07:55:21.669Z,6.85
2017-12-26T07:56:24.145Z,6.83
2017-12-26T07:57:26.603Z,6.81
2017-12-26T07:58:29.212Z,6.80
2017-12-26T07:59:31.870Z,6.78
2017-12-26T08:00:34.742Z,6.77
2017-12-26T08:01:37.307Z,6.79
2017-12-26T08:02:39.964Z,6.70
2017-12-26T08:03:42.461Z,6.76
2017-12-26T08:04:44.944Z,6.74
2017-12-26T08:05:47.441Z,6.74
2017-12-26T08:06:49.921Z,6.69
2017-12-26T08:07:52.425Z,6.66
2017-12-26T08:08:55.015Z,6.65
2017-12-26T08:09:57.515Z,6.62
2017-12-26T08:11:00.036Z,6.58
2017-12-26T08:12:02.539Z,6.59
2017-12-26T08:13:06.032Z,6.63
2017-12-26T08:14:08.572Z,6.63
2017-12-26T08:15:11.045Z,6.57
2017-12-26T08:16:13.712Z,6.55
2017-12-26T08:17:16.589Z,6.54
2017-12-26T08:18:19.111Z,6.56
2017-12-26T08:19:21.610Z,6.53
2017-12-26T08:20:24.454Z,6.54
2017-12-26T08:21:27.192Z,6.53
2017-12-26T08:22:29.833Z,6.52
2017-12-26T08:23:32.417Z,6.51
2017-12-26T08:24:34.875Z,6.52
2017-12-26T08:25:37.618Z,6.51
2017-12-26T08:26:40.201Z,6.46
2017-12-26T08:27:42.955Z,6.41
2017-12-26T08:28:45.683Z,6.43
2017-12-26T08:29:48.213Z,6.40
2017-12-26T08:30:50.954Z,6.41
2017-12-26T08:31:53.732Z,6.40
2017-12-26T08:32:56.724Z,6.38
2017-12-26T08:33:59.241Z,6.32
2017-12-26T08:35:01.956Z,6.35
2017-12-26T08:36:04.613Z,6.35
2017-12-26T08:37:07.100Z,6.36
2017-12-26T08:38:09.957Z,6.37
2017-12-26T08:39:12.483Z,6.21
2017-12-26T08:40:15.013Z,6.29
2017-12-26T08:41:17.589Z,6.27
2017-12-26T08:42:20.104Z,6.30
2017-12-26T08:43:24.707Z,6.29
2017-12-26T08:44:27.234Z,6.26
2017-12-26T08:45:29.757Z,6.19
2017-12-26T08:46:32.251Z,6.21
2017-12-26T08:47:34.811Z,6.22
2017-12-26T08:48:37.399Z,6.20
2017-12-26T08:49:40.184Z,6.23
2017-12-26T08:50:42.701Z,6.24
2017-12-26T08:51:45.201Z,6.15
2017-12-26T08:52:47.678Z,6.21
2017-12-26T08:53:50.284Z,6.17
2017-12-26T08:54:52.976Z,6.15
2017-12-26T08:55:55.555Z,6.11
2017-12-26T08:56:58.043Z,6.12
2017-12-26T08:58:00.536Z,6.17
2017-12-26T08:59:03.152Z,6.15
2017-12-26T09:00:05.716Z,6.10
2017-12-26T09:01:08.193Z,6.03
2017-12-26T09:02:10.713Z,6.05
2017-12-26T09:03:13.163Z,6.08
2017-12-26T09:04:15.639Z,6.08
2017-12-26T09:05:18.160Z,6.08
2017-12-26T09:06:20.638Z,6.07
2017-12-26T09:07:23.218Z,5.98
2017-12-26T09:08:25.726Z,6.01
2017-12-26T09:09:28.263Z,6.00
2017-12-26T09:10:30.913Z,6.01
2017-12-26T09:11:33.428Z,6.00
2017-12-26T09:12:36.450Z,5.97
2017-12-26T09:13:38.997Z,6.00
2017-12-26T09:14:41.501Z,6.00
2017-12-26T09:15:44.288Z,6.04
2017-12-26T09:16:46.813Z,6.12
2017-12-26T09:17:49.313Z,6.06
2017-12-26T09:18:52.100Z,5.99
2017-12-26T09:19:54.685Z,5.92
2017-12-26T09:20:57.249Z,5.88
2017-12-26T09:21:59.749Z,5.91
2017-12-26T09:23:02.218Z,5.68
2017-12-26T09:24:04.773Z,5.94
2017-12-26T09:25:07.268Z,5.94
2017-12-26T09:26:09.735Z,6.02
2017-12-26T09:27:12.277Z,6.02
2017-12-26T09:28:14.753Z,5.97
2017-12-26T09:29:17.525Z,5.93
2017-12-26T09:30:20.164Z,5.97
2017-12-26T09:31:22.703Z,5.92
2017-12-26T09:32:25.434Z,5.89
2017-12-26T09:33:27.896Z,5.94
2017-12-26T09:34:30.566Z,6.00
2017-12-26T09:35:33.080Z,6.05
2017-12-26T09:36:36.428Z,5.98
2017-12-26T09:37:38.895Z,5.96
2017-12-26T09:38:41.453Z,5.95
2017-12-26T09:39:44.309Z,5.93
2017-12-26T09:40:46.900Z,5.93
2017-12-26T09:41:49.377Z,5.90
2017-12-26T09:42:51.870Z,5.88
2017-12-26T09:43:54.397Z,5.92
2017-12-26T09:44:56.890Z,5.89
2017-12-26T09:45:59.479Z,5.89
2017-12-26T09:47:01.988Z,5.90
2017-12-26T09:48:04.580Z,5.95
2017-12-26T09:49:07.090Z,5.99
2017-12-26T09:50:09.741Z,5.89
2017-12-26T09:51:12.215Z,5.96
2017-12-26T09:52:15.143Z,5.92
2017-12-26T09:53:18.015Z,5.96
2017-12-26T09:54:20.633Z,6.00
2017-12-26T09:55:23.171Z,5.96
2017-12-26T09:56:25.645Z,5.96
2017-12-26T09:57:28.134Z,5.97
2017-12-26T09:58:30.583Z,5.93
2017-12-26T09:59:33.030Z,5.87
2017-12-26T10:00:35.490Z,5.78
2017-12-26T10:01:38.053Z,5.79
2017-12-26T10:02:40.576Z,5.70
2017-12-26T10:03:43.052Z,5.76
2017-12-26T10:04:45.529Z,5.74
2017-12-26T10:05:47.990Z,5.69
2017-12-26T10:06:50.733Z,5.70
2017-12-26T10:07:53.213Z,5.72
2017-12-26T10:08:55.723Z,5.77
2017-12-26T10:09:58.171Z,5.81
2017-12-26T10:11:00.693Z,5.78
2017-12-26T10:12:03.247Z,5.85
2017-12-26T10:13:05.743Z,5.83
2017-12-26T10:14:08.265Z,5.86
2017-12-26T10:15:10.718Z,5.85
2017-12-26T10:16:13.228Z,5.87
2017-12-26T10:17:15.708Z,5.90
2017-12-26T10:18:18.271Z,5.94
2017-12-26T10:19:20.726Z,5.97
2017-12-26T10:20:23.243Z,5.81
2017-12-26T10:21:25.698Z,5.87
2017-12-26T10:22:28.372Z,5.93
2017-12-26T10:23:30.889Z,5.93
2017-12-26T10:24:33.352Z,5.98
2017-12-26T10:25:35.850Z,5.96
2017-12-26T10:26:38.294Z,5.96
2017-12-26T10:27:40.769Z,5.96
2017-12-26T10:28:43.428Z,6.05
2017-12-26T10:29:45.918Z,6.08
2017-12-26T10:30:48.437Z,6.10
2017-12-26T10:31:50.886Z,6.14
2017-12-26T10:32:53.781Z,6.19
2017-12-26T10:33:56.228Z,6.16
2017-12-26T10:34:58.894Z,6.31
2017-12-26T10:36:01.857Z,6.45
2017-12-26T10:37:04.319Z,6.32
2017-12-26T10:38:06.812Z,6.34
2017-12-26T10:39:09.420Z,6.39
2017-12-26T10:40:12.257Z,6.46
2017-12-26T10:41:15.015Z,6.53
2017-12-26T10:42:17.639Z,6.57
2017-12-26T10:43:20.256Z,6.49
2017-12-26T10:44:22.822Z,6.55
2017-12-26T10:45:25.398Z,6.65
2017-12-26T10:46:28.021Z,6.57
2017-12-26T10:47:30.515Z,6.57
2017-12-26T10:48:33.352Z,6.63
2017-12-26T10:49:35.872Z,6.64
2017-12-26T10:50:38.346Z,6.82
2017-12-26T10:51:40.841Z,6.90
2017-12-26T10:52:43.317Z,6.97
2017-12-26T10:53:46.568Z,6.80
2017-12-26T10:54:49.467Z,6.80
2017-12-26T10:55:52.080Z,6.80
2017-12-26T10:56:54.739Z,6.67
2017-12-26T10:57:57.451Z,6.69
2017-12-26T10:59:00.251Z,6.68
2017-12-26T11:00:02.869Z,6.73
2017-12-26T11:01:05.425Z,6.57
2017-12-26T11:02:08.025Z,6.57
2017-12-26T11:03:10.593Z,6.63
2017-12-26T11:04:13.369Z,6.64
2017-12-26T11:05:15.847Z,6.64
2017-12-26T11:06:18.559Z,6.75
2017-12-26T11:07:21.304Z,6.84
2017-12-26T11:08:23.827Z,6.86
2017-12-26T11:09:26.342Z,6.83
2017-12-26T11:10:28.822Z,6.78
2017-12-26T11:11:31.311Z,6.86
2017-12-26T11:12:33.800Z,6.90
2017-12-26T11:13:36.385Z,6.78
2017-12-26T11:14:38.893Z,6.85
2017-12-26T11:15:41.459Z,6.90
2017-12-26T11:16:44.060Z,7.02
2017-12-26T11:17:46.631Z,7.14
2017-12-26T11:18:49.164Z,7.13
2017-12-26T11:19:51.620Z,7.11
2017-12-26T11:20:54.273Z,7.05
2017-12-26T11:21:56.880Z,6.95
2017-12-26T11:23:00.079Z,7.02
2017-12-26T11:24:03.126Z,6.87
2017-12-26T11:25:05.655Z,6.83
2017-12-26T11:26:08.209Z,6.93
2017-12-26T11:27:10.747Z,6.94
2017-12-26T11:28:13.474Z,6.98
2017-12-26T11:29:15.981Z,7.11
2017-12-26T11:30:18.586Z,7.09
2017-12-26T11:31:21.206Z,7.16
2017-12-26T11:32:23.829Z,7.21
2017-12-26T11:33:26.408Z,7.04
2017-12-26T11:34:29.030Z,7.14
2017-12-26T11:35:31.555Z,7.19
2017-12-26T11:36:34.351Z,7.20
2017-12-26T11:37:36.926Z,7.15
2017-12-26T11:38:39.576Z,7.05
2017-12-26T11:39:42.227Z,7.09
2017-12-26T11:40:44.714Z,7.05
2017-12-26T11:41:47.381Z,6.94
2017-12-26T11:42:49.940Z,7.12
2017-12-26T11:43:52.446Z,7.06
2017-12-26T11:44:55.100Z,7.08
2017-12-26T11:45:57.823Z,7.13
2017-12-26T11:47:00.357Z,7.12
2017-12-26T11:48:02.919Z,7.15
2017-12-26T11:49:05.471Z,7.21
2017-12-26T11:50:08.200Z,7.23
2017-12-26T11:51:10.701Z,7.20
2017-12-26T11:52:13.252Z,7.20
2017-12-26T11:53:15.960Z,7.22
2017-12-26T11:54:19.032Z,7.16
2017-12-26T11:55:21.690Z,7.33
2017-12-26T11:56:24.239Z,7.23
2017-12-26T11:57:26.736Z,7.13
2017-12-26T11:58:29.261Z,7.08
2017-12-26T11:59:31.863Z,7.22
2017-12-26T12:00:36.185Z,7.31
2017-12-26T12:01:38.756Z,7.30
2017-12-26T12:02:41.250Z,7.21
2017-12-26T12:03:43.993Z,7.21
2017-12-26T12:04:46.577Z,7.15
2017-12-26T12:05:49.131Z,7.16
2017-12-26T12:06:51.684Z,7.18
2017-12-26T12:07:54.354Z,7.24
2017-12-26T12:08:57.692Z,7.23
2017-12-26T12:10:02.752Z,7.19
2017-12-26T12:11:05.426Z,7.18
2017-12-26T12:12:07.951Z,7.23
2017-12-26T12:13:10.556Z,7.17
2017-12-26T12:14:13.155Z,7.19
2017-12-26T12:15:15.704Z,7.23
2017-12-26T12:16:18.187Z,7.23
2017-12-26T12:17:20.704Z,7.25
2017-12-26T12:18:23.352Z,7.34
2017-12-26T12:19:26.024Z,7.31
2017-12-26T12:20:28.845Z,7.32
2017-12-26T12:21:31.397Z,7.36
2017-12-26T12:22:34.017Z,7.42
2017-12-26T12:23:36.800Z,7.44
2017-12-26T12:24:39.308Z,7.50
2017-12-26T12:25:41.906Z,7.58
2017-12-26T12:26:44.376Z,7.59
2017-12-26T12:27:46.900Z,7.63
2017-12-26T12:28:49.355Z,7.64
2017-12-26T12:29:52.049Z,7.80
2017-12-26T12:30:54.869Z,7.99
2017-12-26T12:31:58.913Z,7.93
2017-12-26T12:33:02.487Z,8.06
2017-12-26T12:34:05.001Z,7.86
2017-12-26T12:35:07.510Z,7.80
2017-12-26T12:36:10.146Z,7.66
2017-12-26T12:37:12.876Z,7.67
2017-12-26T12:38:15.879Z,7.65
2017-12-26T12:39:18.526Z,7.65
2017-12-26T12:40:21.429Z,7.64
2017-12-26T12:41:26.728Z,7.71
2017-12-26T12:42:29.201Z,7.70
2017-12-26T12:43:31.837Z,7.65
2017-12-26T12:44:34.562Z,7.56
2017-12-26T12:45:37.219Z,7.55
2017-12-26T12:46:39.719Z,7.56
2017-12-26T12:47:44.473Z,7.56
2017-12-26T12:48:47.846Z,7.54
2017-12-26T12:49:50.429Z,7.57
2017-12-26T12:50:52.913Z,7.59
2017-12-26T12:51:55.384Z,7.64
2017-12-26T12:52:57.922Z,7.63
2017-12-26T12:54:00.562Z,7.65
2017-12-26T12:55:03.224Z,7.64
2017-12-26T12:56:05.795Z,7.59
2017-12-26T12:57:08.355Z,7.52
2017-12-26T12:58:10.936Z,7.51
2017-12-26T12:59:13.720Z,7.51
2017-12-26T13:00:16.351Z,7.51
2017-12-26T13:01:18.931Z,7.51
2017-12-26T13:02:21.517Z,7.43
2017-12-26T13:03:24.350Z,7.39
2017-12-26T13:04:27.052Z,7.39
2017-12-26T13:05:29.603Z,7.42
2017-12-26T13:06:32.157Z,7.46
2017-12-26T13:07:34.910Z,7.49
2017-12-26T13:08:37.456Z,7.45
2017-12-26T13:09:40.092Z,7.40
2017-12-26T13:10:42.785Z,7.41
2017-12-26T13:11:45.480Z,7.44
2017-12-26T13:12:48.010Z,7.48
2017-12-26T13:13:50.855Z,7.46
2017-12-26T13:14:53.401Z,7.48
2017-12-26T13:15:55.864Z,7.50
2017-12-26T13:17:01.239Z,7.46
2017-12-26T13:18:03.812Z,7.50
2017-12-26T13:19:06.308Z,7.53
2017-12-26T13:20:09.009Z,7.48
2017-12-26T13:21:11.605Z,7.44
2017-12-26T13:22:14.313Z,7.43
2017-12-26T13:23:16.936Z,7.45
2017-12-26T13:24:19.412Z,7.49
2017-12-26T13:25:22.153Z,7.44
2017-12-26T13:26:24.723Z,7.47
2017-12-26T13:27:27.326Z,7.48
2017-12-26T13:28:29.991Z,7.50
2017-12-26T13:29:32.475Z,7.56
2017-12-26T13:30:35.005Z,7.60
2017-12-26T13:31:37.455Z,7.72
2017-12-26T13:32:39.962Z,7.79
2017-12-26T13:33:42.477Z,7.71
2017-12-26T13:34:45.085Z,7.60
2017-12-26T13:35:47.830Z,7.52
2017-12-26T13:36:50.566Z,7.54
2017-12-26T13:37:53.090Z,7.51
2017-12-26T13:38:55.568Z,7.53
2017-12-26T13:39:58.054Z,7.53
2017-12-26T13:41:00.604Z,7.46
2017-12-26T13:42:03.081Z,7.41
2017-12-26T13:43:05.528Z,7.44
2017-12-26T13:44:07.975Z,7.46
2017-12-26T13:45:10.440Z,7.46
2017-12-26T13:46:12.882Z,7.50
2017-12-26T13:47:15.326Z,7.48
2017-12-26T13:48:17.778Z,7.35
2017-12-26T13:49:20.240Z,7.43
2017-12-26T13:50:22.683Z,7.43
2017-12-26T13:51:25.142Z,7.44
2017-12-26T13:52:27.604Z,7.43
2017-12-26T13:53:30.063Z,7.41
2017-12-26T13:54:32.510Z,7.44